메인 페이지
METAR-TAF:

METAR-TAF

공항 :

포르투알레그리, 히우그란지두술, 브라질

위도: 30-00S, 경도: 051-11W, 고도: 3m

현재 날씨관측

예보는 46분 전, 23:00시(UTC)에 발표되었습니다.
북북서5kt
온도 12°C
습도 76%
기압 1019 hPa
시정 10km 이상
1500m 미만 상공 구름 및 적란운 없음

METAR: SBPA 012300Z 33005KT CAVOK 12/08 Q1019

시각: 20:46 (23:46 UTC)

예보

예보는 2 시간 46분 전, 21:00시(UTC)에 발표되었습니다.
예보 대상 시간: 02일 00시부터 02일 24시까지 (UTC)
8kt
시정 10km 이상
고도 1500ft 상공 구름 많음
전환 중
02일 03시부터 02일 05시까지 (UTC)
고도 700ft 상공 구름 보통
확률 40%
02일 07시부터 02일 12시까지 (UTC)
시정: 3500m
고도 500ft 상공 구름 많음
박무
전환 중
02일 13시부터 02일 15시까지 (UTC)
고도 2000ft 상공 구름 보통

TAF: SBPA 012100Z 0200/0224 28008KT 9999 BKN015 TN09/0209Z TX20/0216Z BECMG 0203/0205 SCT007 PROB40 0207/0212 3500 BR BKN005 BECMG 0213/0215 SCT020 RMK PEI

4,000개 이상의 공항 관측 자료 및 예보 (METAR 및 TAF 보고).

지도상에서 검색 가능한 기상관측소가 노란 점과 빨간 점으로 표시되어 있습니다.

기상관측소 명을 보려면 표시 위로 마우스를 이동하세요.

날씨 관측과 예보를 보려면 클릭하세요.

지도 변경 : 확대하려면 엑스 표시가 있는 녹색 버튼, 축소하려면 빼기 표시가 있는 녹색 버튼, 다음 페이지의 지도를 보려면 녹색 화살표를 클릭하세요.


METAR-TAF: